Hahnville, Louisiana
Current Conditions -  °F | °C
As of 5:53 PM on Friday 28 Nov 2014 (Local Time) from KMSY Reporting Station
Few Clouds Few Clouds  
Wind Chill: 53°   Ceiling: Unl
Heat Index: 53°   Visibility: 10mi
Dew Point: 41°   Wind: 7mph
Humidity: 64%   Direction: 150°SSE
Pressure: 30.3"   Gusts: NA
Location:  29.98°N, 90.41°W
Report Text: KMSY 282353Z 15006KT 10SM FEW250 12/05 A3030 RMK AO2 SLP263 T01170050 10167 20117 55000
Loading
Personal Weather Stations






























Interactive Weather Map New forecast layout! Learn more

10-Day Weather Forecast

Advertisements
Track Severe Weather on mobile